Time;durP1;ratioP1;P1;durP2;ratioP2;P2;SDS_P1;SDS_P2;PMS_P1;PMS_P2;Temp;Humidity;BMP_temperature;BMP_pressure;BME280_temperature;BME280_humidity;BME280_pressure;Samples;Min_cycle;Max_cycle;Signal;HPM_P1;HPM_P2
2020/12/20 00:01:44;;;;;;;0.40;0.40;;;6.70;99.90;;;;;;5014638;28;20206;-85
2020/12/20 00:04:11;;;;;;;0.60;0.60;;;6.70;99.90;;;;;;5016147;28;20218;-85
2020/12/20 00:06:39;;;;;;;0.67;0.50;;;6.90;99.90;;;;;;5031246;28;20212;-84
2020/12/20 00:09:08;;;;;;;0.53;0.53;;;7.10;99.90;;;;;;5015739;28;20197;-85
2020/12/20 00:11:38;;;;;;;1.07;0.40;;;7.20;99.90;;;;;;5033087;28;20234;-85
2020/12/20 00:14:26;;;;;;;0.90;0.90;;;7.30;99.90;;;;;;5034093;28;20233;-85
2020/12/20 00:16:49;;;;;;;0.87;0.53;;;7.40;99.90;;;;;;5030426;28;20266;-85
2020/12/20 00:19:15;;;;;;;0.60;0.60;;;7.40;99.90;;;;;;5033050;28;20690;-85
2020/12/20 00:21:40;;;;;;;0.33;0.27;;;7.50;99.90;;;;;;5013115;28;20309;-85
2020/12/20 00:24:09;;;;;;;0.40;0.40;;;7.60;99.90;;;;;;5033278;28;20647;-84
2020/12/20 00:26:35;;;;;;;0.70;0.70;;;7.70;99.90;;;;;;5014516;28;20709;-84
2020/12/20 00:29:00;;;;;;;0.67;0.67;;;7.70;99.90;;;;;;5013643;28;20268;-85
2020/12/20 00:31:26;;;;;;;0.40;0.40;;;7.70;99.90;;;;;;5031099;28;20206;-84
2020/12/20 00:33:51;;;;;;;0.53;0.53;;;7.70;99.90;;;;;;5014979;28;20336;-84
2020/12/20 00:36:17;;;;;;;1.47;1.37;;;7.70;99.90;;;;;;5031211;28;20243;-85
2020/12/20 00:38:43;;;;;;;0.40;0.40;;;7.60;99.90;;;;;;5015627;28;20188;-85
2020/12/20 00:41:09;;;;;;;0.37;0.37;;;7.70;99.90;;;;;;5010423;28;20761;-83
2020/12/20 00:43:35;;;;;;;0.47;0.47;;;7.80;99.90;;;;;;5033225;28;20198;-84
2020/12/20 00:46:01;;;;;;;0.43;0.43;;;7.80;99.90;;;;;;5014803;28;20186;-84
2020/12/20 00:48:26;;;;;;;0.87;0.30;;;7.90;99.90;;;;;;5021795;28;20283;-85
2020/12/20 00:50:52;;;;;;;0.37;0.37;;;7.90;99.90;;;;;;5013111;28;20210;-85
2020/12/20 00:53:17;;;;;;;0.40;0.40;;;7.90;99.90;;;;;;5014096;28;20203;-85
2020/12/20 00:55:43;;;;;;;0.80;0.60;;;7.90;99.90;;;;;;5014125;28;20171;-84
2020/12/20 00:58:08;;;;;;;1.03;0.60;;;7.90;99.90;;;;;;5014801;28;20183;-86
2020/12/20 01:00:34;;;;;;;0.63;0.60;;;7.90;99.90;;;;;;5013041;28;20183;-85
2020/12/20 01:02:59;;;;;;;0.27;0.27;;;7.70;99.90;;;;;;5016109;28;20194;-85
2020/12/20 01:05:25;;;;;;;0.43;0.43;;;7.70;99.90;;;;;;5011836;28;20539;-84
2020/12/20 01:07:50;;;;;;;0.57;0.57;;;7.70;99.90;;;;;;5014392;28;20251;-85
2020/12/20 01:10:16;;;;;;;0.33;0.33;;;7.60;99.90;;;;;;5009193;28;20215;-85
2020/12/20 01:12:41;;;;;;;0.23;0.23;;;7.70;99.90;;;;;;5033434;28;20197;-84
2020/12/20 01:15:07;;;;;;;0.50;0.50;;;7.70;99.90;;;;;;5031057;28;20288;-86
2020/12/20 01:17:33;;;;;;;0.77;0.60;;;7.70;99.90;;;;;;5032432;28;20171;-85
2020/12/20 01:19:58;;;;;;;0.50;0.50;;;7.70;99.90;;;;;;5031231;28;20562;-85
2020/12/20 01:22:24;;;;;;;0.40;0.40;;;7.70;99.90;;;;;;5014439;28;20740;-85
2020/12/20 01:24:49;;;;;;;0.43;0.43;;;7.70;99.90;;;;;;5013197;28;20198;-85
2020/12/20 01:27:15;;;;;;;0.87;0.87;;;7.70;99.90;;;;;;5030188;28;20196;-84
2020/12/20 01:29:41;;;;;;;1.67;1.20;;;7.70;99.90;;;;;;5014393;28;20229;-85
2020/12/20 01:32:06;;;;;;;0.60;0.60;;;7.40;99.90;;;;;;5030531;28;20212;-85
2020/12/20 01:34:32;;;;;;;1.17;0.60;;;7.20;99.90;;;;;;5013704;28;20174;-85
2020/12/20 01:36:57;;;;;;;0.57;0.57;;;7.10;99.90;;;;;;5013805;28;20193;-85
2020/12/20 01:39:23;;;;;;;0.23;0.23;;;7.20;99.90;;;;;;5014341;28;20190;-84
2020/12/20 01:41:52;;;;;;;2.20;0.57;;;7.20;99.90;;;;;;5013085;28;20709;-86
2020/12/20 01:44:17;;;;;;;0.50;0.50;;;7.20;99.90;;;;;;5013585;28;20264;-85
2020/12/20 01:46:43;;;;;;;0.30;0.30;;;7.40;99.90;;;;;;5013926;28;20572;-85
2020/12/20 01:49:10;;;;;;;0.50;0.50;;;7.50;99.90;;;;;;5013011;28;20218;-84
2020/12/20 01:51:36;;;;;;;0.50;0.50;;;7.70;99.90;;;;;;5014238;28;20198;-85
2020/12/20 01:54:02;;;;;;;0.73;0.73;;;7.70;99.90;;;;;;5030911;28;20240;-85
2020/12/20 01:56:27;;;;;;;2.67;0.77;;;7.60;99.90;;;;;;5013188;28;20181;-85
2020/12/20 01:58:54;;;;;;;0.10;0.10;;;7.70;99.90;;;;;;5014034;28;20202;-85
2020/12/20 02:01:19;;;;;;;0.40;0.40;;;7.70;99.90;;;;;;5034308;28;20189;-85
2020/12/20 02:03:45;;;;;;;1.23;1.23;;;7.70;99.90;;;;;;5020354;28;20236;-84
2020/12/20 02:06:14;;;;;;;0.83;0.83;;;7.80;99.90;;;;;;5028704;28;20270;-85
2020/12/20 02:08:40;;;;;;;0.30;0.30;;;7.90;99.90;;;;;;5030618;28;20194;-85
2020/12/20 02:11:15;;;;;;;0.43;0.40;;;7.90;99.90;;;;;;5012930;28;20213;-85
2020/12/20 02:13:49;;;;;;;0.50;0.50;;;8.00;99.90;;;;;;5011208;28;20270;-85
2020/12/20 02:16:17;;;;;;;0.57;0.57;;;7.70;99.90;;;;;;5030131;28;20673;-85
2020/12/20 02:18:42;;;;;;;0.33;0.30;;;7.50;99.90;;;;;;5031468;28;20661;-85
2020/12/20 02:21:12;;;;;;;0.50;0.50;;;7.40;99.90;;;;;;5027264;28;20269;-85
2020/12/20 02:23:47;;;;;;;0.70;0.70;;;7.40;99.90;;;;;;5013224;28;20570;-85
2020/12/20 02:26:14;;;;;;;0.30;0.30;;;7.50;99.90;;;;;;5029765;28;20186;-84
2020/12/20 02:28:39;;;;;;;0.47;0.47;;;7.40;99.90;;;;;;5013490;28;20190;-85
2020/12/20 02:31:06;;;;;;;0.60;0.60;;;7.30;99.90;;;;;;5012116;28;20220;-85
2020/12/20 02:33:33;;;;;;;0.33;0.33;;;7.40;99.90;;;;;;5013477;28;20201;-85
2020/12/20 02:35:59;;;;;;;0.10;0.10;;;7.50;99.90;;;;;;5012119;28;20200;-85
2020/12/20 02:38:25;;;;;;;0.30;0.30;;;7.40;99.90;;;;;;5011780;28;20191;-85
2020/12/20 02:40:51;;;;;;;4.67;0.73;;;7.30;99.90;;;;;;5012369;28;20186;-84
2020/12/20 02:43:16;;;;;;;1.03;0.67;;;7.20;99.90;;;;;;5013103;28;20213;-85
2020/12/20 02:45:42;;;;;;;0.60;0.60;;;7.10;99.90;;;;;;5011959;28;20237;-85
2020/12/20 02:48:08;;;;;;;1.67;0.83;;;7.00;99.90;;;;;;5029855;28;20190;-85
2020/12/20 02:50:34;;;;;;;0.60;0.40;;;7.00;99.90;;;;;;5012607;28;20745;-85
2020/12/20 02:53:00;;;;;;;0.33;0.33;;;7.00;99.90;;;;;;5013031;28;20296;-85
2020/12/20 02:55:26;;;;;;;0.43;0.43;;;6.90;99.90;;;;;;5029824;28;20264;-84
2020/12/20 02:57:52;;;;;;;0.57;0.30;;;7.10;99.90;;;;;;5008534;28;20194;-85
2020/12/20 03:00:18;;;;;;;0.57;0.40;;;7.30;99.90;;;;;;5004772;28;20193;-85
2020/12/20 03:02:44;;;;;;;0.70;0.30;;;7.50;99.90;;;;;;5025420;28;20210;-84
2020/12/20 03:05:09;;;;;;;0.53;0.50;;;7.60;99.90;;;;;;5029647;28;20198;-85
2020/12/20 03:07:35;;;;;;;0.83;0.70;;;7.60;99.90;;;;;;5011339;28;20189;-85
2020/12/20 03:10:01;;;;;;;1.10;0.70;;;7.60;99.90;;;;;;5032645;28;20213;-86
2020/12/20 03:12:26;;;;;;;0.33;0.30;;;7.50;99.90;;;;;;5013685;28;20194;-85
2020/12/20 03:14:52;;;;;;;0.53;0.53;;;7.60;99.90;;;;;;5016841;28;20192;-85
2020/12/20 03:17:17;;;;;;;0.40;0.33;;;7.70;99.90;;;;;;5013192;28;20326;-85
2020/12/20 03:19:43;;;;;;;0.30;0.30;;;7.70;99.90;;;;;;5016967;28;20268;-85
2020/12/20 03:22:08;;;;;;;1.40;0.40;;;7.70;99.90;;;;;;5017095;28;20218;-85
2020/12/20 03:24:34;;;;;;;0.20;0.20;;;7.80;99.90;;;;;;5015264;28;20192;-85
2020/12/20 03:27:01;;;;;;;0.70;0.70;;;7.70;99.90;;;;;;5016551;28;20185;-83
2020/12/20 03:29:26;;;;;;;0.20;0.20;;;7.70;99.90;;;;;;5015591;28;20583;-86
2020/12/20 03:31:52;;;;;;;0.23;0.23;;;7.80;99.90;;;;;;5015621;28;20228;-85
2020/12/20 03:34:17;;;;;;;0.20;0.20;;;7.80;99.90;;;;;;5016585;28;20248;-85
2020/12/20 03:36:43;;;;;;;0.50;0.40;;;7.80;99.90;;;;;;5015950;28;20268;-85
2020/12/20 03:39:08;;;;;;;0.40;0.40;;;7.80;99.90;;;;;;5016354;28;20182;-85
2020/12/20 03:41:34;;;;;;;1.23;0.73;;;7.70;99.90;;;;;;5014092;28;20210;-85
2020/12/20 03:43:59;;;;;;;0.37;0.37;;;7.70;99.90;;;;;;5017023;28;20205;-84
2020/12/20 03:46:25;;;;;;;0.83;0.63;;;7.70;99.90;;;;;;5031812;28;20234;-85
2020/12/20 03:48:52;;;;;;;0.80;0.67;;;7.70;99.90;;;;;;5016119;28;20549;-85
2020/12/20 03:51:18;;;;;;;0.47;0.40;;;7.60;99.90;;;;;;5014879;28;20240;-85
2020/12/20 03:53:44;;;;;;;0.40;0.40;;;7.60;99.90;;;;;;5015563;28;20205;-85
2020/12/20 03:56:10;;;;;;;0.50;0.50;;;7.60;99.90;;;;;;5015505;28;20238;-85
2020/12/20 03:58:35;;;;;;;0.30;0.30;;;7.50;99.90;;;;;;5014326;28;20617;-85
2020/12/20 04:01:01;;;;;;;0.50;0.50;;;7.40;99.90;;;;;;5016328;28;20220;-85
2020/12/20 04:03:26;;;;;;;0.70;0.70;;;7.50;99.90;;;;;;5041605;28;20706;-84
2020/12/20 04:05:53;;;;;;;1.77;1.03;;;7.50;99.90;;;;;;5014735;28;20182;-84
2020/12/20 04:08:18;;;;;;;0.70;0.60;;;7.50;99.90;;;;;;5014620;28;20239;-84
2020/12/20 04:10:44;;;;;;;2.13;0.60;;;7.60;99.90;;;;;;5020268;28;20210;-85
2020/12/20 04:13:09;;;;;;;0.30;0.30;;;7.50;99.90;;;;;;5027553;28;20200;-85
2020/12/20 04:15:35;;;;;;;0.53;0.53;;;7.60;99.90;;;;;;5033290;28;20232;-85
2020/12/20 04:18:01;;;;;;;0.60;0.60;;;7.50;99.90;;;;;;5033918;28;20187;-84
2020/12/20 04:20:26;;;;;;;2.87;0.63;;;7.50;99.90;;;;;;5014462;28;20189;-85
2020/12/20 04:22:52;;;;;;;0.10;0.10;;;7.50;99.90;;;;;;5016871;28;20253;-85
2020/12/20 04:25:17;;;;;;;0.50;0.50;;;7.50;99.90;;;;;;5015351;28;20187;-85
2020/12/20 04:27:43;;;;;;;1.43;0.40;;;7.30;99.90;;;;;;5015185;28;20197;-84
2020/12/20 04:30:08;;;;;;;0.93;0.83;;;7.40;99.90;;;;;;5010089;28;20213;-85
2020/12/20 04:32:35;;;;;;;0.40;0.40;;;7.40;99.90;;;;;;5010855;28;20770;-85
2020/12/20 04:35:00;;;;;;;0.43;0.43;;;7.30;99.90;;;;;;5016277;28;20190;-84
2020/12/20 04:37:26;;;;;;;0.33;0.33;;;7.40;99.90;;;;;;5016185;28;20289;-84
2020/12/20 04:39:52;;;;;;;0.20;0.20;;;7.30;99.90;;;;;;5035737;28;20221;-84
2020/12/20 04:42:18;;;;;;;1.20;1.13;;;7.30;99.90;;;;;;5017456;28;20245;-84
2020/12/20 04:44:44;;;;;;;0.20;0.20;;;7.40;99.90;;;;;;5036022;28;20236;-84
2020/12/20 04:47:10;;;;;;;0.20;0.20;;;7.40;99.90;;;;;;5035849;28;20190;-85
2020/12/20 04:49:38;;;;;;;2.63;0.77;;;7.40;99.90;;;;;;5033787;28;20221;-86
2020/12/20 04:52:03;;;;;;;0.40;0.40;;;7.40;99.90;;;;;;5017207;28;20198;-84
2020/12/20 04:54:32;;;;;;;0.33;0.33;;;7.40;99.90;;;;;;5034318;28;20329;-84
2020/12/20 04:56:57;;;;;;;0.13;0.13;;;7.40;99.90;;;;;;5033275;28;21220;-84
2020/12/20 04:59:24;;;;;;;0.73;0.30;;;7.50;99.90;;;;;;5034044;28;20205;-83
2020/12/20 05:01:50;;;;;;;0.50;0.50;;;7.50;99.90;;;;;;5013351;28;20206;-84
2020/12/20 05:04:15;;;;;;;0.40;0.40;;;7.50;99.90;;;;;;5016646;28;20187;-85
2020/12/20 05:06:41;;;;;;;0.67;0.53;;;7.50;99.90;;;;;;5013617;28;20280;-85
2020/12/20 05:09:07;;;;;;;0.60;0.60;;;7.50;99.90;;;;;;5014881;28;20808;-85
2020/12/20 05:11:39;;;;;;;1.20;0.47;;;7.50;99.90;;;;;;5016320;28;20210;-84
2020/12/20 05:14:06;;;;;;;0.60;0.60;;;7.50;99.90;;;;;;5012812;28;20187;-84
2020/12/20 05:16:33;;;;;;;0.10;0.10;;;7.50;99.90;;;;;;5016466;28;20269;-85
2020/12/20 05:19:00;;;;;;;0.33;0.33;;;7.60;99.90;;;;;;5045100;28;20191;-84
2020/12/20 05:21:28;;;;;;;2.53;0.60;;;7.50;99.90;;;;;;5011407;28;20222;-85
2020/12/20 05:23:54;;;;;;;0.30;0.30;;;7.50;99.90;;;;;;5032912;28;20206;-85
2020/12/20 05:26:30;;;;;;;0.50;0.50;;;7.50;99.90;;;;;;5011932;28;20202;-84
2020/12/20 05:29:10;;;;;;;1.03;0.60;;;7.40;99.90;;;;;;5014983;28;20187;-85
2020/12/20 05:31:36;;;;;;;0.73;0.43;;;7.30;99.90;;;;;;5013226;28;20217;-85
2020/12/20 05:34:02;;;;;;;1.10;0.87;;;7.40;99.90;;;;;;5013290;28;20219;-87
2020/12/20 05:36:29;;;;;;;0.67;0.63;;;7.30;99.90;;;;;;5014920;28;20201;-84
2020/12/20 05:39:14;;;;;;;0.60;0.60;;;7.40;99.90;;;;;;5028730;28;20189;-85
2020/12/20 05:41:40;;;;;;;0.50;0.30;;;7.30;99.90;;;;;;5031674;28;20264;-85
2020/12/20 05:44:10;;;;;;;0.30;0.30;;;7.00;99.90;;;;;;5014106;28;20189;-85
2020/12/20 05:46:36;;;;;;;0.83;0.33;;;7.10;99.90;;;;;;5014396;28;20628;-84
2020/12/20 05:49:16;;;;;;;0.23;0.23;;;7.10;99.90;;;;;;5032917;28;20228;-84
2020/12/20 05:52:04;;;;;;;1.03;0.83;;;6.90;99.90;;;;;;5025944;28;20207;-85
2020/12/20 05:54:38;;;;;;;0.43;0.43;;;6.80;99.90;;;;;;5016280;28;20175;-85
2020/12/20 05:57:08;;;;;;;0.97;0.83;;;7.00;99.90;;;;;;5015058;28;20305;-83
2020/12/20 05:59:34;;;;;;;0.50;0.50;;;6.90;99.90;;;;;;5014192;28;20189;-85
2020/12/20 06:02:03;;;;;;;0.83;0.53;;;7.10;99.90;;;;;;5041196;28;20209;-85
2020/12/20 06:04:30;;;;;;;0.40;0.40;;;7.10;99.90;;;;;;5019290;28;20189;-85
2020/12/20 06:06:57;;;;;;;1.70;0.80;;;7.10;99.90;;;;;;5031651;28;20204;-85
2020/12/20 06:09:25;;;;;;;0.70;0.70;;;7.20;99.90;;;;;;5035071;28;20206;-84
2020/12/20 06:11:53;;;;;;;0.50;0.50;;;7.30;99.90;;;;;;5033971;28;20206;-85
2020/12/20 06:14:23;;;;;;;2.67;0.80;;;7.40;99.90;;;;;;5033971;28;20181;-86
2020/12/20 06:17:09;;;;;;;0.77;0.77;;;7.40;99.90;;;;;;5005336;28;20175;-85
2020/12/20 06:19:54;;;;;;;0.97;0.63;;;7.50;99.90;;;;;;5020249;28;20178;-84
2020/12/20 06:22:30;;;;;;;0.37;0.37;;;7.50;99.90;;;;;;5027458;28;20218;-84
2020/12/20 06:24:59;;;;;;;0.60;0.60;;;7.40;99.90;;;;;;5024461;28;20186;-84
2020/12/20 06:27:26;;;;;;;0.80;0.80;;;7.40;99.90;;;;;;5012810;28;20238;-84
2020/12/20 06:29:54;;;;;;;0.60;0.60;;;7.40;99.90;;;;;;5028848;28;20323;-82
2020/12/20 06:32:33;;;;;;;1.03;0.67;;;7.30;99.90;;;;;;5011596;28;20280;-82
2020/12/20 06:35:09;;;;;;;0.60;0.60;;;7.10;99.90;;;;;;5010745;28;20182;-82
2020/12/20 06:37:39;;;;;;;0.40;0.40;;;7.20;99.90;;;;;;5004970;28;20229;-82
2020/12/20 06:40:04;;;;;;;0.17;0.17;;;7.10;99.90;;;;;;5028737;28;20591;-82
2020/12/20 06:42:43;;;;;;;0.90;0.47;;;7.10;99.90;;;;;;5026079;28;20239;-82
2020/12/20 06:45:18;;;;;;;0.20;0.20;;;7.10;99.90;;;;;;5028132;28;20186;-82
2020/12/20 06:47:52;;;;;;;0.47;0.47;;;7.10;99.90;;;;;;5026372;28;20193;-82
2020/12/20 06:50:46;;;;;;;0.30;0.30;;;7.20;99.90;;;;;;5007445;28;20852;-82
2020/12/20 06:53:17;;;;;;;0.70;0.70;;;6.80;99.90;;;;;;5012334;28;20281;-82
2020/12/20 06:55:44;;;;;;;0.60;0.33;;;6.60;99.90;;;;;;5011740;28;20185;-82
2020/12/20 06:58:11;;;;;;;0.27;0.27;;;6.80;99.90;;;;;;5011504;28;20181;-82
2020/12/20 07:00:47;;;;;;;2.30;0.40;;;7.00;99.90;;;;;;5010305;28;20186;-82
2020/12/20 07:03:24;;;;;;;1.73;0.40;;;7.10;99.90;;;;;;5011526;28;20701;-82
2020/12/20 07:05:54;;;;;;;0.23;0.23;;;7.10;99.90;;;;;;5028900;28;20218;-84
2020/12/20 07:08:30;;;;;;;1.17;0.80;;;7.20;99.90;;;;;;5029685;28;20193;-81
2020/12/20 07:10:58;;;;;;;0.30;0.30;;;7.30;99.90;;;;;;5011187;28;20213;-82
2020/12/20 07:13:31;;;;;;;2.67;2.47;;;7.30;99.90;;;;;;5010593;28;20288;-82
2020/12/20 07:16:04;;;;;;;1.27;1.17;;;7.30;99.90;;;;;;5010904;28;20553;-82
2020/12/20 07:18:40;;;;;;;0.53;0.53;;;7.30;99.90;;;;;;5028062;28;20185;-82
2020/12/20 07:21:09;;;;;;;1.33;0.50;;;7.20;99.90;;;;;;5009790;28;20661;-82
2020/12/20 07:23:38;;;;;;;0.30;0.30;;;7.20;99.90;;;;;;5029513;28;20194;-82
2020/12/20 07:26:03;;;;;;;0.37;0.37;;;7.30;99.90;;;;;;5011611;28;20264;-81
2020/12/20 07:28:29;;;;;;;0.30;0.30;;;7.40;99.90;;;;;;5011366;28;20671;-81
2020/12/20 07:30:54;;;;;;;4.00;0.77;;;7.30;99.90;;;;;;5010686;28;20221;-81
2020/12/20 07:33:20;;;;;;;0.50;0.50;;;7.30;99.90;;;;;;5008514;28;20583;-82
2020/12/20 07:35:46;;;;;;;0.70;0.43;;;7.30;99.90;;;;;;5028553;28;20261;-82
2020/12/20 07:38:12;;;;;;;3.47;0.30;;;7.40;99.90;;;;;;5028336;28;20187;-82
2020/12/20 07:40:38;;;;;;;0.63;0.40;;;7.40;99.90;;;;;;5010296;28;20186;-82
2020/12/20 07:43:04;;;;;;;0.50;0.50;;;7.40;99.90;;;;;;5012266;28;20696;-82
2020/12/20 07:45:29;;;;;;;1.60;0.70;;;7.40;99.90;;;;;;5010275;28;20202;-82
2020/12/20 07:47:55;;;;;;;0.53;0.50;;;7.40;99.90;;;;;;5028818;28;20304;-82
2020/12/20 07:50:24;;;;;;;0.57;0.40;;;7.40;99.90;;;;;;5027390;28;20207;-81
2020/12/20 07:52:50;;;;;;;1.23;0.97;;;7.50;99.90;;;;;;5027708;28;20583;-81
2020/12/20 07:55:16;;;;;;;0.93;0.93;;;7.50;99.90;;;;;;5010212;28;20187;-82
2020/12/20 07:57:47;;;;;;;0.53;0.53;;;7.60;99.90;;;;;;5012032;28;20185;-82
2020/12/20 08:00:17;;;;;;;0.30;0.30;;;7.60;99.90;;;;;;5012009;28;20197;-82
2020/12/20 08:02:43;;;;;;;0.60;0.50;;;7.60;99.90;;;;;;5012761;28;20653;-82
2020/12/20 08:05:10;;;;;;;0.60;0.60;;;7.60;99.90;;;;;;5013973;28;20214;-81
2020/12/20 08:07:37;;;;;;;0.90;0.53;;;7.60;99.90;;;;;;5026996;28;20559;-82
2020/12/20 08:10:04;;;;;;;0.70;0.67;;;7.60;99.90;;;;;;5014704;28;20251;-82
2020/12/20 08:12:30;;;;;;;1.13;0.63;;;7.60;99.90;;;;;;5015529;28;20256;-81
2020/12/20 08:15:07;;;;;;;0.40;0.40;;;7.40;99.90;;;;;;5013973;28;20190;-83
2020/12/20 08:17:36;;;;;;;2.27;0.93;;;7.50;99.90;;;;;;5017960;28;20666;-83
2020/12/20 08:20:06;;;;;;;0.33;0.33;;;7.60;99.90;;;;;;5030924;28;20187;-82
2020/12/20 08:22:33;;;;;;;1.27;1.17;;;7.60;99.90;;;;;;5034047;28;20238;-82
2020/12/20 08:25:06;;;;;;;1.20;0.83;;;7.70;99.90;;;;;;5014196;28;20191;-82
2020/12/20 08:27:32;;;;;;;0.10;0.10;;;7.70;99.90;;;;;;5012987;28;20282;-82
2020/12/20 08:30:00;;;;;;;0.67;0.50;;;7.60;99.90;;;;;;5012366;28;20289;-82
2020/12/20 08:32:43;;;;;;;0.43;0.43;;;7.30;99.90;;;;;;5031775;28;20721;-82
2020/12/20 08:35:08;;;;;;;1.07;0.57;;;7.40;99.90;;;;;;5030289;28;20248;-82
2020/12/20 08:37:34;;;;;;;0.43;0.37;;;7.40;99.90;;;;;;5031004;28;20642;-82
2020/12/20 08:40:16;;;;;;;1.00;0.67;;;7.50;99.90;;;;;;5031807;28;20196;-82
2020/12/20 08:42:43;;;;;;;0.40;0.40;;;7.50;99.90;;;;;;5013705;28;20202;-84
2020/12/20 08:45:17;;;;;;;1.20;0.53;;;7.50;99.90;;;;;;5013735;28;20213;-83
2020/12/20 08:47:44;;;;;;;1.90;0.97;;;7.50;99.90;;;;;;5012501;28;20182;-83
2020/12/20 08:50:11;;;;;;;0.47;0.47;;;7.50;99.90;;;;;;5015052;28;20230;-83
2020/12/20 08:52:37;;;;;;;2.17;1.33;;;7.50;99.90;;;;;;5028672;28;20194;-83
2020/12/20 08:55:04;;;;;;;0.30;0.30;;;7.60;99.90;;;;;;5013915;28;20601;-83
2020/12/20 08:57:34;;;;;;;0.40;0.40;;;7.60;99.90;;;;;;5015603;28;20183;-83
2020/12/20 09:00:08;;;;;;;0.53;0.50;;;7.60;99.90;;;;;;5028715;28;20218;-84
2020/12/20 09:02:34;;;;;;;0.37;0.37;;;7.60;99.90;;;;;;5012859;28;20202;-83
2020/12/20 09:05:04;;;;;;;1.37;1.27;;;7.70;99.90;;;;;;5010826;28;20696;-83
2020/12/20 09:07:40;;;;;;;1.53;0.83;;;7.70;99.90;;;;;;5014122;28;20186;-83
2020/12/20 09:10:15;;;;;;;0.90;0.90;;;7.80;99.90;;;;;;5015159;28;20680;-84
2020/12/20 09:12:51;;;;;;;0.83;0.83;;;7.80;99.90;;;;;;5015175;28;20198;-83
2020/12/20 09:15:21;;;;;;;0.40;0.40;;;7.80;99.90;;;;;;5018383;28;20187;-82
2020/12/20 09:17:51;;;;;;;1.60;0.60;;;7.80;99.90;;;;;;5010741;28;20183;-83
2020/12/20 09:20:19;;;;;;;0.47;0.47;;;7.80;99.90;;;;;;5031108;28;20192;-82
2020/12/20 09:22:55;;;;;;;0.40;0.40;;;7.80;99.90;;;;;;5034605;28;20220;-84
2020/12/20 09:25:38;;;;;;;0.27;0.27;;;7.70;99.90;;;;;;5014803;28;20182;-84
2020/12/20 09:28:12;;;;;;;0.20;0.20;;;7.60;99.90;;;;;;5012769;28;20701;-83
2020/12/20 09:30:49;;;;;;;0.30;0.30;;;7.70;99.90;;;;;;5027559;28;20330;-83
2020/12/20 09:33:17;;;;;;;0.33;0.33;;;7.70;99.90;;;;;;5013798;28;20205;-83
2020/12/20 09:35:54;;;;;;;0.60;0.60;;;7.80;99.90;;;;;;5034118;28;20203;-83
2020/12/20 09:38:22;;;;;;;0.50;0.50;;;7.90;99.90;;;;;;5018891;28;20403;-83
2020/12/20 09:40:54;;;;;;;2.03;0.60;;;7.70;99.90;;;;;;5017236;28;20186;-82
2020/12/20 09:43:20;;;;;;;0.80;0.60;;;7.60;99.90;;;;;;5042095;28;20232;-84
2020/12/20 09:45:45;;;;;;;0.10;0.10;;;7.40;99.90;;;;;;5041669;28;20188;-84
2020/12/20 09:48:11;;;;;;;0.40;0.40;;;7.50;99.90;;;;;;5040591;28;20186;-83
2020/12/20 09:50:37;;;;;;;0.50;0.50;;;7.60;99.90;;;;;;5014985;28;20198;-83
2020/12/20 09:53:02;;;;;;;0.80;0.80;;;7.70;99.90;;;;;;5015791;28;20207;-83
2020/12/20 09:55:30;;;;;;;0.77;0.60;;;7.90;99.90;;;;;;5018115;28;20241;-84
2020/12/20 09:57:56;;;;;;;1.77;0.80;;;7.90;99.90;;;;;;5041717;28;20184;-84
2020/12/20 10:00:21;;;;;;;0.50;0.50;;;7.90;99.90;;;;;;5031344;28;20192;-84
2020/12/20 10:02:47;;;;;;;1.70;0.63;;;8.00;99.90;;;;;;5019060;28;20198;-84
2020/12/20 10:05:13;;;;;;;0.73;0.60;;;8.00;99.90;;;;;;5038965;28;20213;-84
2020/12/20 10:07:39;;;;;;;0.37;0.37;;;8.00;99.90;;;;;;5038731;28;20604;-83
2020/12/20 10:10:05;;;;;;;0.87;0.60;;;8.00;99.90;;;;;;5028944;28;20209;-84
2020/12/20 10:12:32;;;;;;;0.57;0.57;;;8.00;99.90;;;;;;5024271;28;20612;-84
2020/12/20 10:14:58;;;;;;;0.97;0.97;;;7.90;99.90;;;;;;5024523;28;20182;-83
2020/12/20 10:17:25;;;;;;;0.57;0.30;;;8.00;99.90;;;;;;5024461;28;20235;-84
2020/12/20 10:19:51;;;;;;;0.80;0.80;;;8.00;99.90;;;;;;5022279;28;20178;-83
2020/12/20 10:22:16;;;;;;;0.47;0.47;;;8.00;99.90;;;;;;5013715;28;20252;-84
2020/12/20 10:24:42;;;;;;;1.13;0.50;;;7.70;99.90;;;;;;5013722;28;20561;-82
2020/12/20 10:27:07;;;;;;;0.33;0.33;;;7.80;99.90;;;;;;5011599;28;20294;-82
2020/12/20 10:29:33;;;;;;;0.73;0.53;;;7.60;99.90;;;;;;5029831;28;20206;-84
2020/12/20 10:31:59;;;;;;;0.73;0.73;;;7.30;99.90;;;;;;5013355;28;20213;-82
2020/12/20 10:34:24;;;;;;;0.10;0.10;;;7.30;99.90;;;;;;5010458;28;20178;-83
2020/12/20 10:36:51;;;;;;;2.30;2.10;;;7.40;99.90;;;;;;5013566;28;20212;-82
2020/12/20 10:39:18;;;;;;;0.90;0.67;;;7.30;99.90;;;;;;5013428;28;20185;-83
2020/12/20 10:41:44;;;;;;;1.60;0.53;;;7.40;99.90;;;;;;5013712;28;20686;-84
2020/12/20 10:44:09;;;;;;;0.47;0.47;;;7.50;99.90;;;;;;5030081;28;20229;-83
2020/12/20 10:46:35;;;;;;;2.77;0.50;;;7.60;99.90;;;;;;5012508;28;20220;-82
2020/12/20 10:49:03;;;;;;;1.20;1.10;;;7.50;99.90;;;;;;5013699;28;20213;-83
2020/12/20 10:51:29;;;;;;;0.73;0.67;;;7.70;99.90;;;;;;5013565;28;20222;-83
2020/12/20 10:53:55;;;;;;;1.70;1.60;;;7.90;99.90;;;;;;5030703;28;20575;-82
2020/12/20 10:56:21;;;;;;;0.63;0.63;;;8.00;99.90;;;;;;5014481;28;20277;-82
2020/12/20 10:58:48;;;;;;;1.33;0.67;;;8.00;99.90;;;;;;5012831;28;20288;-83
2020/12/20 11:01:15;;;;;;;0.50;0.50;;;8.10;99.90;;;;;;5011815;28;20195;-83
2020/12/20 11:03:42;;;;;;;0.60;0.40;;;8.20;99.90;;;;;;5014019;28;20771;-83
2020/12/20 11:06:08;;;;;;;0.60;0.60;;;8.10;99.90;;;;;;5035797;28;21449;-83
2020/12/20 11:08:33;;;;;;;0.63;0.60;;;8.20;99.90;;;;;;5018341;28;20194;-83
2020/12/20 11:10:59;;;;;;;0.50;0.50;;;8.30;99.90;;;;;;5023847;28;20214;-82
2020/12/20 11:13:25;;;;;;;0.50;0.50;;;8.30;99.90;;;;;;5016091;28;20205;-83
2020/12/20 11:15:50;;;;;;;0.50;0.50;;;8.40;99.90;;;;;;5006214;28;20193;-84
2020/12/20 11:18:16;;;;;;;0.60;0.60;;;8.40;99.90;;;;;;5032493;28;20269;-83
2020/12/20 11:20:41;;;;;;;0.50;0.50;;;8.50;99.90;;;;;;5016844;28;20281;-83
2020/12/20 11:23:07;;;;;;;0.10;0.10;;;8.50;99.90;;;;;;5015771;28;20786;-83
2020/12/20 11:25:33;;;;;;;1.03;1.03;;;8.60;99.90;;;;;;5018211;28;20189;-82
2020/12/20 11:27:59;;;;;;;0.30;0.30;;;8.50;99.90;;;;;;5013601;28;20183;-83
2020/12/20 11:30:24;;;;;;;0.70;0.70;;;8.40;99.90;;;;;;5031621;28;20206;-82
2020/12/20 11:32:50;;;;;;;1.00;0.70;;;8.50;99.90;;;;;;5015007;28;20202;-83
2020/12/20 11:35:16;;;;;;;2.00;0.83;;;8.60;99.90;;;;;;5020131;28;20197;-83
2020/12/20 11:37:42;;;;;;;0.70;0.70;;;8.70;99.90;;;;;;5020478;28;20523;-83
2020/12/20 11:40:08;;;;;;;0.53;0.53;;;8.70;99.90;;;;;;5036603;28;20190;-83
2020/12/20 11:42:35;;;;;;;1.70;0.60;;;8.70;99.90;;;;;;5019028;28;20213;-83
2020/12/20 11:45:01;;;;;;;0.43;0.43;;;8.70;99.90;;;;;;5022712;28;20191;-83
2020/12/20 11:47:26;;;;;;;0.97;0.97;;;8.80;99.90;;;;;;5039310;28;20240;-83
2020/12/20 11:49:52;;;;;;;0.97;0.67;;;8.90;99.90;;;;;;5018617;28;20207;-83
2020/12/20 11:52:18;;;;;;;0.63;0.63;;;8.90;99.90;;;;;;5038463;28;20694;-83
2020/12/20 11:54:43;;;;;;;0.73;0.63;;;8.90;99.90;;;;;;5019711;28;20192;-83
2020/12/20 11:57:09;;;;;;;1.13;1.03;;;8.90;99.90;;;;;;5018522;28;20191;-84
2020/12/20 11:59:34;;;;;;;0.30;0.30;;;8.90;99.90;;;;;;5025389;28;20199;-83
2020/12/20 12:02:01;;;;;;;1.50;1.00;;;8.90;99.90;;;;;;5019214;28;20208;-84
2020/12/20 12:04:27;;;;;;;0.93;0.50;;;8.90;99.90;;;;;;5027168;28;20213;-84
2020/12/20 12:06:52;;;;;;;0.97;0.50;;;8.90;99.90;;;;;;5017978;28;20229;-84
2020/12/20 12:09:18;;;;;;;0.47;0.27;;;8.90;99.90;;;;;;5015725;28;20248;-83
2020/12/20 12:11:43;;;;;;;1.03;0.93;;;8.90;99.90;;;;;;5015906;28;20206;-84
2020/12/20 12:14:09;;;;;;;2.03;0.80;;;8.90;99.90;;;;;;5017187;28;20189;-84
2020/12/20 12:16:34;;;;;;;2.10;1.00;;;8.90;99.90;;;;;;5034824;28;20183;-83
2020/12/20 12:19:00;;;;;;;0.57;0.57;;;9.00;99.90;;;;;;5034222;28;20191;-84
2020/12/20 12:21:25;;;;;;;0.70;0.70;;;9.00;99.90;;;;;;5019346;28;20217;-84
2020/12/20 12:23:51;;;;;;;0.93;0.50;;;9.00;99.90;;;;;;5020023;28;20202;-84
2020/12/20 12:26:17;;;;;;;1.27;0.80;;;8.90;99.90;;;;;;5031020;28;20269;-83
2020/12/20 12:28:43;;;;;;;0.60;0.57;;;8.70;99.90;;;;;;5019851;28;20648;-84
2020/12/20 12:31:08;;;;;;;0.83;0.80;;;8.70;99.90;;;;;;5017397;28;20303;-84
2020/12/20 12:33:34;;;;;;;0.40;0.33;;;8.50;99.90;;;;;;5016307;28;20561;-84
2020/12/20 12:36:00;;;;;;;1.10;1.10;;;8.60;99.90;;;;;;5036516;28;20193;-84
2020/12/20 12:38:25;;;;;;;0.97;0.97;;;8.50;99.90;;;;;;5030842;28;20191;-84
2020/12/20 12:40:51;;;;;;;0.73;0.63;;;8.60;99.90;;;;;;5028100;28;20205;-84
2020/12/20 12:43:16;;;;;;;0.40;0.40;;;8.60;99.90;;;;;;5026629;28;20227;-84
2020/12/20 12:45:42;;;;;;;0.60;0.60;;;8.60;99.90;;;;;;5030804;28;20282;-85
2020/12/20 12:48:09;;;;;;;0.83;0.53;;;8.40;99.90;;;;;;5038927;28;20205;-84
2020/12/20 12:50:34;;;;;;;0.50;0.50;;;8.50;99.90;;;;;;5041720;28;20214;-84
2020/12/20 12:53:00;;;;;;;1.47;0.80;;;8.50;99.90;;;;;;5044157;28;20216;-84
2020/12/20 12:55:30;;;;;;;0.80;0.80;;;8.60;99.90;;;;;;5017520;28;20274;-85
2020/12/20 12:57:56;;;;;;;0.40;0.40;;;8.50;99.90;;;;;;5019133;28;20181;-83
2020/12/20 13:00:23;;;;;;;0.67;0.50;;;8.60;99.90;;;;;;5017266;28;20630;-84